sensor_id;sensor_type;location;lat;lon;timestamp;P1;durP1;ratioP1;P2;durP2;ratioP2
63434;SDS011;68814;50.872;5.306;2023-04-15T00:02:23;8.10;;;3.60;;
63434;SDS011;68814;50.872;5.306;2023-04-15T00:04:49;7.28;;;3.35;;
63434;SDS011;68814;50.872;5.306;2023-04-15T00:07:14;8.25;;;3.50;;
63434;SDS011;68814;50.872;5.306;2023-04-15T00:09:40;6.93;;;3.20;;
63434;SDS011;68814;50.872;5.306;2023-04-15T00:12:07;6.70;;;3.80;;
63434;SDS011;68814;50.872;5.306;2023-04-15T00:14:33;9.65;;;3.60;;
63434;SDS011;68814;50.872;5.306;2023-04-15T00:17:00;8.77;;;3.30;;
63434;SDS011;68814;50.872;5.306;2023-04-15T00:19:27;9.82;;;3.88;;
63434;SDS011;68814;50.872;5.306;2023-04-15T00:21:53;7.55;;;3.05;;
63434;SDS011;68814;50.872;5.306;2023-04-15T00:24:19;8.30;;;3.60;;
63434;SDS011;68814;50.872;5.306;2023-04-15T00:26:45;10.68;;;4.60;;
63434;SDS011;68814;50.872;5.306;2023-04-15T00:29:11;9.27;;;4.32;;
63434;SDS011;68814;50.872;5.306;2023-04-15T00:31:37;6.97;;;3.83;;
63434;SDS011;68814;50.872;5.306;2023-04-15T00:34:02;9.35;;;4.22;;
63434;SDS011;68814;50.872;5.306;2023-04-15T00:36:28;9.30;;;4.38;;
63434;SDS011;68814;50.872;5.306;2023-04-15T00:38:55;9.60;;;4.20;;
63434;SDS011;68814;50.872;5.306;2023-04-15T00:41:21;10.70;;;4.30;;
63434;SDS011;68814;50.872;5.306;2023-04-15T00:43:47;9.35;;;4.30;;
63434;SDS011;68814;50.872;5.306;2023-04-15T00:46:13;8.45;;;4.50;;
63434;SDS011;68814;50.872;5.306;2023-04-15T00:48:40;10.10;;;4.72;;
63434;SDS011;68814;50.872;5.306;2023-04-15T00:51:06;9.38;;;3.65;;
63434;SDS011;68814;50.872;5.306;2023-04-15T00:53:32;7.18;;;4.03;;
63434;SDS011;68814;50.872;5.306;2023-04-15T00:55:58;7.68;;;4.10;;
63434;SDS011;68814;50.872;5.306;2023-04-15T00:58:23;8.90;;;3.95;;
63434;SDS011;68814;50.872;5.306;2023-04-15T01:00:49;11.15;;;3.90;;
63434;SDS011;68814;50.872;5.306;2023-04-15T01:03:18;7.05;;;4.03;;
63434;SDS011;68814;50.872;5.306;2023-04-15T01:05:44;6.60;;;3.50;;
63434;SDS011;68814;50.872;5.306;2023-04-15T01:08:10;7.00;;;4.20;;
63434;SDS011;68814;50.872;5.306;2023-04-15T01:10:36;8.52;;;4.00;;
63434;SDS011;68814;50.872;5.306;2023-04-15T01:13:02;8.93;;;4.05;;
63434;SDS011;68814;50.872;5.306;2023-04-15T01:15:28;12.55;;;3.97;;
63434;SDS011;68814;50.872;5.306;2023-04-15T01:17:53;7.82;;;4.18;;
63434;SDS011;68814;50.872;5.306;2023-04-15T01:20:19;7.80;;;4.50;;
63434;SDS011;68814;50.872;5.306;2023-04-15T01:22:46;7.60;;;4.00;;
63434;SDS011;68814;50.872;5.306;2023-04-15T01:25:15;7.07;;;3.85;;
63434;SDS011;68814;50.872;5.306;2023-04-15T01:27:43;6.80;;;3.38;;
63434;SDS011;68814;50.872;5.306;2023-04-15T01:30:09;6.40;;;3.53;;
63434;SDS011;68814;50.872;5.306;2023-04-15T01:32:35;7.68;;;3.95;;
63434;SDS011;68814;50.872;5.306;2023-04-15T01:35:01;7.95;;;4.10;;
63434;SDS011;68814;50.872;5.306;2023-04-15T01:37:27;6.90;;;3.67;;
63434;SDS011;68814;50.872;5.306;2023-04-15T01:39:53;6.18;;;3.97;;
63434;SDS011;68814;50.872;5.306;2023-04-15T01:42:20;9.10;;;3.92;;
63434;SDS011;68814;50.872;5.306;2023-04-15T01:44:46;11.50;;;3.53;;
63434;SDS011;68814;50.872;5.306;2023-04-15T01:47:12;8.95;;;3.78;;
63434;SDS011;68814;50.872;5.306;2023-04-15T01:49:38;9.27;;;3.83;;
63434;SDS011;68814;50.872;5.306;2023-04-15T01:52:03;8.18;;;3.35;;
63434;SDS011;68814;50.872;5.306;2023-04-15T01:54:29;7.38;;;3.80;;
63434;SDS011;68814;50.872;5.306;2023-04-15T01:56:55;9.93;;;3.47;;
63434;SDS011;68814;50.872;5.306;2023-04-15T01:59:21;9.30;;;3.40;;
63434;SDS011;68814;50.872;5.306;2023-04-15T02:01:47;9.20;;;3.10;;
63434;SDS011;68814;50.872;5.306;2023-04-15T02:04:12;10.70;;;3.08;;
63434;SDS011;68814;50.872;5.306;2023-04-15T02:06:42;9.63;;;3.58;;
63434;SDS011;68814;50.872;5.306;2023-04-15T02:09:08;8.05;;;3.35;;
63434;SDS011;68814;50.872;5.306;2023-04-15T02:11:34;9.82;;;2.70;;
63434;SDS011;68814;50.872;5.306;2023-04-15T02:14:01;7.80;;;2.95;;
63434;SDS011;68814;50.872;5.306;2023-04-15T02:16:28;5.82;;;2.97;;
63434;SDS011;68814;50.872;5.306;2023-04-15T02:18:54;9.70;;;3.00;;
63434;SDS011;68814;50.872;5.306;2023-04-15T02:21:20;5.20;;;2.72;;
63434;SDS011;68814;50.872;5.306;2023-04-15T02:23:46;5.90;;;2.85;;
63434;SDS011;68814;50.872;5.306;2023-04-15T02:26:12;11.20;;;2.90;;
63434;SDS011;68814;50.872;5.306;2023-04-15T02:28:38;7.10;;;2.65;;
63434;SDS011;68814;50.872;5.306;2023-04-15T02:31:04;11.20;;;3.20;;
63434;SDS011;68814;50.872;5.306;2023-04-15T02:33:30;9.48;;;2.83;;
63434;SDS011;68814;50.872;5.306;2023-04-15T02:35:56;9.25;;;3.05;;
63434;SDS011;68814;50.872;5.306;2023-04-15T02:38:23;7.57;;;3.50;;
63434;SDS011;68814;50.872;5.306;2023-04-15T02:40:49;10.25;;;3.45;;
63434;SDS011;68814;50.872;5.306;2023-04-15T02:43:15;6.47;;;3.58;;
63434;SDS011;68814;50.872;5.306;2023-04-15T02:45:41;5.38;;;2.83;;
63434;SDS011;68814;50.872;5.306;2023-04-15T02:48:07;10.20;;;3.35;;
63434;SDS011;68814;50.872;5.306;2023-04-15T02:50:33;8.50;;;3.40;;
63434;SDS011;68814;50.872;5.306;2023-04-15T02:52:59;7.57;;;2.80;;
63434;SDS011;68814;50.872;5.306;2023-04-15T02:55:26;10.02;;;3.92;;
63434;SDS011;68814;50.872;5.306;2023-04-15T02:57:52;16.70;;;5.90;;
63434;SDS011;68814;50.872;5.306;2023-04-15T03:00:18;15.90;;;5.53;;
63434;SDS011;68814;50.872;5.306;2023-04-15T03:02:44;9.80;;;4.05;;
63434;SDS011;68814;50.872;5.306;2023-04-15T03:05:11;7.07;;;3.53;;
63434;SDS011;68814;50.872;5.306;2023-04-15T03:07:37;13.25;;;4.05;;
63434;SDS011;68814;50.872;5.306;2023-04-15T03:10:05;7.20;;;3.10;;
63434;SDS011;68814;50.872;5.306;2023-04-15T03:12:31;7.45;;;3.22;;
63434;SDS011;68814;50.872;5.306;2023-04-15T03:14:57;7.20;;;3.38;;
63434;SDS011;68814;50.872;5.306;2023-04-15T03:17:22;9.52;;;3.85;;
63434;SDS011;68814;50.872;5.306;2023-04-15T03:19:48;10.77;;;3.60;;
63434;SDS011;68814;50.872;5.306;2023-04-15T03:22:14;9.13;;;3.58;;
63434;SDS011;68814;50.872;5.306;2023-04-15T03:24:39;9.85;;;4.10;;
63434;SDS011;68814;50.872;5.306;2023-04-15T03:27:05;11.38;;;3.55;;
63434;SDS011;68814;50.872;5.306;2023-04-15T03:29:32;8.68;;;3.78;;
63434;SDS011;68814;50.872;5.306;2023-04-15T03:31:57;6.95;;;3.70;;
63434;SDS011;68814;50.872;5.306;2023-04-15T03:34:23;6.53;;;3.80;;
63434;SDS011;68814;50.872;5.306;2023-04-15T03:36:49;8.48;;;3.65;;
63434;SDS011;68814;50.872;5.306;2023-04-15T03:39:14;8.05;;;3.63;;
63434;SDS011;68814;50.872;5.306;2023-04-15T03:41:40;7.10;;;3.97;;
63434;SDS011;68814;50.872;5.306;2023-04-15T03:44:06;8.65;;;3.90;;
63434;SDS011;68814;50.872;5.306;2023-04-15T03:46:31;8.73;;;3.38;;
63434;SDS011;68814;50.872;5.306;2023-04-15T03:48:57;6.97;;;3.47;;
63434;SDS011;68814;50.872;5.306;2023-04-15T03:51:23;6.90;;;3.15;;
63434;SDS011;68814;50.872;5.306;2023-04-15T03:53:49;7.53;;;3.33;;
63434;SDS011;68814;50.872;5.306;2023-04-15T03:56:15;7.05;;;2.83;;
63434;SDS011;68814;50.872;5.306;2023-04-15T03:58:41;7.18;;;3.47;;
63434;SDS011;68814;50.872;5.306;2023-04-15T04:01:06;5.10;;;3.22;;
63434;SDS011;68814;50.872;5.306;2023-04-15T04:03:32;8.32;;;3.72;;
63434;SDS011;68814;50.872;5.306;2023-04-15T04:05:58;7.30;;;3.70;;
63434;SDS011;68814;50.872;5.306;2023-04-15T04:08:24;11.68;;;3.75;;
63434;SDS011;68814;50.872;5.306;2023-04-15T04:10:51;7.80;;;3.50;;
63434;SDS011;68814;50.872;5.306;2023-04-15T04:13:17;12.02;;;4.13;;
63434;SDS011;68814;50.872;5.306;2023-04-15T04:15:42;9.85;;;3.70;;
63434;SDS011;68814;50.872;5.306;2023-04-15T04:18:08;6.30;;;3.30;;
63434;SDS011;68814;50.872;5.306;2023-04-15T04:20:33;6.72;;;3.45;;
63434;SDS011;68814;50.872;5.306;2023-04-15T04:22:59;8.00;;;3.53;;
63434;SDS011;68814;50.872;5.306;2023-04-15T04:25:25;7.50;;;3.28;;
63434;SDS011;68814;50.872;5.306;2023-04-15T04:27:51;7.30;;;3.22;;
63434;SDS011;68814;50.872;5.306;2023-04-15T04:30:16;6.18;;;3.15;;
63434;SDS011;68814;50.872;5.306;2023-04-15T04:32:42;11.90;;;4.43;;
63434;SDS011;68814;50.872;5.306;2023-04-15T04:35:08;8.10;;;3.88;;
63434;SDS011;68814;50.872;5.306;2023-04-15T04:37:33;7.63;;;4.15;;
63434;SDS011;68814;50.872;5.306;2023-04-15T04:39:59;10.43;;;3.97;;
63434;SDS011;68814;50.872;5.306;2023-04-15T04:42:25;6.80;;;3.80;;
63434;SDS011;68814;50.872;5.306;2023-04-15T04:44:50;7.80;;;3.90;;
63434;SDS011;68814;50.872;5.306;2023-04-15T04:47:16;8.43;;;3.72;;
63434;SDS011;68814;50.872;5.306;2023-04-15T04:49:42;10.23;;;4.05;;
63434;SDS011;68814;50.872;5.306;2023-04-15T04:52:08;8.70;;;4.68;;
63434;SDS011;68814;50.872;5.306;2023-04-15T04:54:34;8.48;;;3.50;;
63434;SDS011;68814;50.872;5.306;2023-04-15T04:56:59;10.52;;;4.05;;
63434;SDS011;68814;50.872;5.306;2023-04-15T04:59:25;8.32;;;4.13;;
63434;SDS011;68814;50.872;5.306;2023-04-15T05:01:51;10.75;;;4.50;;
63434;SDS011;68814;50.872;5.306;2023-04-15T05:04:17;11.63;;;4.68;;
63434;SDS011;68814;50.872;5.306;2023-04-15T05:06:42;8.50;;;4.70;;
63434;SDS011;68814;50.872;5.306;2023-04-15T05:09:08;12.75;;;5.32;;
63434;SDS011;68814;50.872;5.306;2023-04-15T05:11:33;8.50;;;4.43;;
63434;SDS011;68814;50.872;5.306;2023-04-15T05:13:59;11.05;;;4.30;;
63434;SDS011;68814;50.872;5.306;2023-04-15T05:16:26;8.43;;;3.65;;
63434;SDS011;68814;50.872;5.306;2023-04-15T05:18:51;11.75;;;3.55;;
63434;SDS011;68814;50.872;5.306;2023-04-15T05:21:17;10.50;;;3.85;;
63434;SDS011;68814;50.872;5.306;2023-04-15T05:23:43;8.05;;;4.05;;
63434;SDS011;68814;50.872;5.306;2023-04-15T05:26:09;12.20;;;4.32;;
63434;SDS011;68814;50.872;5.306;2023-04-15T05:28:35;13.35;;;3.55;;
63434;SDS011;68814;50.872;5.306;2023-04-15T05:31:01;8.50;;;3.47;;
63434;SDS011;68814;50.872;5.306;2023-04-15T05:33:26;7.97;;;3.35;;
63434;SDS011;68814;50.872;5.306;2023-04-15T05:35:52;7.28;;;3.90;;
63434;SDS011;68814;50.872;5.306;2023-04-15T05:38:17;10.18;;;4.20;;
63434;SDS011;68814;50.872;5.306;2023-04-15T05:40:43;10.48;;;3.95;;
63434;SDS011;68814;50.872;5.306;2023-04-15T05:43:09;11.32;;;4.57;;
63434;SDS011;68814;50.872;5.306;2023-04-15T05:45:34;7.95;;;4.53;;
63434;SDS011;68814;50.872;5.306;2023-04-15T05:48:00;8.48;;;4.10;;
63434;SDS011;68814;50.872;5.306;2023-04-15T05:50:26;11.90;;;4.38;;
63434;SDS011;68814;50.872;5.306;2023-04-15T05:52:51;10.60;;;3.70;;
63434;SDS011;68814;50.872;5.306;2023-04-15T05:55:17;13.68;;;4.15;;
63434;SDS011;68814;50.872;5.306;2023-04-15T05:57:42;11.88;;;4.40;;
63434;SDS011;68814;50.872;5.306;2023-04-15T06:00:08;15.63;;;5.10;;
63434;SDS011;68814;50.872;5.306;2023-04-15T06:02:34;13.77;;;4.82;;
63434;SDS011;68814;50.872;5.306;2023-04-15T06:05:00;9.02;;;4.07;;
63434;SDS011;68814;50.872;5.306;2023-04-15T06:07:26;8.73;;;4.00;;
63434;SDS011;68814;50.872;5.306;2023-04-15T06:09:51;11.38;;;4.78;;
63434;SDS011;68814;50.872;5.306;2023-04-15T06:12:17;8.32;;;4.03;;
63434;SDS011;68814;50.872;5.306;2023-04-15T06:14:43;7.50;;;4.05;;
63434;SDS011;68814;50.872;5.306;2023-04-15T06:17:08;9.50;;;3.80;;
63434;SDS011;68814;50.872;5.306;2023-04-15T06:19:34;11.80;;;4.65;;
63434;SDS011;68814;50.872;5.306;2023-04-15T06:22:02;9.82;;;3.92;;
63434;SDS011;68814;50.872;5.306;2023-04-15T06:24:28;11.57;;;4.30;;
63434;SDS011;68814;50.872;5.306;2023-04-15T06:26:54;7.30;;;4.03;;
63434;SDS011;68814;50.872;5.306;2023-04-15T06:29:20;15.20;;;4.95;;
63434;SDS011;68814;50.872;5.306;2023-04-15T06:31:48;12.57;;;4.20;;
63434;SDS011;68814;50.872;5.306;2023-04-15T06:34:15;10.02;;;4.30;;
63434;SDS011;68814;50.872;5.306;2023-04-15T06:36:41;11.75;;;4.35;;
63434;SDS011;68814;50.872;5.306;2023-04-15T06:39:06;10.70;;;4.32;;
63434;SDS011;68814;50.872;5.306;2023-04-15T06:41:32;11.45;;;4.60;;
63434;SDS011;68814;50.872;5.306;2023-04-15T06:43:58;13.80;;;4.97;;
63434;SDS011;68814;50.872;5.306;2023-04-15T06:46:24;10.88;;;5.15;;
63434;SDS011;68814;50.872;5.306;2023-04-15T06:48:50;9.52;;;4.70;;
63434;SDS011;68814;50.872;5.306;2023-04-15T06:51:16;11.23;;;4.80;;
63434;SDS011;68814;50.872;5.306;2023-04-15T06:53:42;13.02;;;4.95;;
63434;SDS011;68814;50.872;5.306;2023-04-15T06:56:07;12.05;;;5.57;;
63434;SDS011;68814;50.872;5.306;2023-04-15T06:58:34;13.43;;;5.38;;
63434;SDS011;68814;50.872;5.306;2023-04-15T07:01:00;13.20;;;5.32;;
63434;SDS011;68814;50.872;5.306;2023-04-15T07:03:26;13.63;;;5.65;;
63434;SDS011;68814;50.872;5.306;2023-04-15T07:05:51;13.60;;;5.82;;
63434;SDS011;68814;50.872;5.306;2023-04-15T07:08:18;18.90;;;6.40;;
63434;SDS011;68814;50.872;5.306;2023-04-15T07:10:45;12.25;;;6.35;;
63434;SDS011;68814;50.872;5.306;2023-04-15T07:13:11;12.55;;;6.43;;
63434;SDS011;68814;50.872;5.306;2023-04-15T07:15:37;18.35;;;5.68;;
63434;SDS011;68814;50.872;5.306;2023-04-15T07:18:02;14.45;;;5.47;;
63434;SDS011;68814;50.872;5.306;2023-04-15T07:20:28;14.40;;;5.78;;
63434;SDS011;68814;50.872;5.306;2023-04-15T07:22:54;11.07;;;5.68;;
63434;SDS011;68814;50.872;5.306;2023-04-15T07:25:20;10.75;;;5.13;;
63434;SDS011;68814;50.872;5.306;2023-04-15T07:27:46;11.75;;;5.80;;
63434;SDS011;68814;50.872;5.306;2023-04-15T07:30:12;13.15;;;5.97;;
63434;SDS011;68814;50.872;5.306;2023-04-15T07:32:43;13.30;;;6.05;;
63434;SDS011;68814;50.872;5.306;2023-04-15T07:35:09;12.75;;;6.50;;
63434;SDS011;68814;50.872;5.306;2023-04-15T07:37:35;14.90;;;5.68;;
63434;SDS011;68814;50.872;5.306;2023-04-15T07:40:01;10.52;;;5.07;;
63434;SDS011;68814;50.872;5.306;2023-04-15T07:42:31;9.85;;;5.38;;
63434;SDS011;68814;50.872;5.306;2023-04-15T07:44:58;13.57;;;5.32;;
63434;SDS011;68814;50.872;5.306;2023-04-15T07:47:25;15.77;;;5.07;;
63434;SDS011;68814;50.872;5.306;2023-04-15T07:49:51;10.20;;;5.13;;
63434;SDS011;68814;50.872;5.306;2023-04-15T07:52:17;10.55;;;5.15;;
63434;SDS011;68814;50.872;5.306;2023-04-15T07:54:42;13.27;;;5.53;;
63434;SDS011;68814;50.872;5.306;2023-04-15T07:57:08;11.73;;;4.85;;
63434;SDS011;68814;50.872;5.306;2023-04-15T07:59:34;9.30;;;5.05;;
63434;SDS011;68814;50.872;5.306;2023-04-15T08:02:00;11.88;;;5.05;;
63434;SDS011;68814;50.872;5.306;2023-04-15T08:04:26;11.85;;;5.05;;
63434;SDS011;68814;50.872;5.306;2023-04-15T08:06:52;12.25;;;5.75;;
63434;SDS011;68814;50.872;5.306;2023-04-15T08:09:19;11.20;;;5.25;;
63434;SDS011;68814;50.872;5.306;2023-04-15T08:12:07;10.20;;;5.40;;
63434;SDS011;68814;50.872;5.306;2023-04-15T08:14:38;16.17;;;5.40;;
63434;SDS011;68814;50.872;5.306;2023-04-15T08:17:04;8.60;;;4.95;;
63434;SDS011;68814;50.872;5.306;2023-04-15T08:19:29;11.02;;;4.97;;
63434;SDS011;68814;50.872;5.306;2023-04-15T08:21:55;13.35;;;4.95;;
63434;SDS011;68814;50.872;5.306;2023-04-15T08:24:21;15.50;;;5.63;;
63434;SDS011;68814;50.872;5.306;2023-04-15T08:26:48;13.20;;;5.78;;
63434;SDS011;68814;50.872;5.306;2023-04-15T08:29:13;9.50;;;5.43;;
63434;SDS011;68814;50.872;5.306;2023-04-15T08:31:40;13.38;;;6.57;;
63434;SDS011;68814;50.872;5.306;2023-04-15T08:34:06;8.52;;;6.03;;
63434;SDS011;68814;50.872;5.306;2023-04-15T08:36:31;11.85;;;6.28;;
63434;SDS011;68814;50.872;5.306;2023-04-15T08:38:57;14.07;;;7.28;;
63434;SDS011;68814;50.872;5.306;2023-04-15T08:41:25;14.45;;;8.43;;
63434;SDS011;68814;50.872;5.306;2023-04-15T08:43:52;11.48;;;8.18;;
63434;SDS011;68814;50.872;5.306;2023-04-15T08:46:21;11.90;;;8.77;;
63434;SDS011;68814;50.872;5.306;2023-04-15T08:48:48;14.98;;;8.63;;
63434;SDS011;68814;50.872;5.306;2023-04-15T08:51:15;16.48;;;9.68;;
63434;SDS011;68814;50.872;5.306;2023-04-15T08:53:42;15.75;;;8.70;;
63434;SDS011;68814;50.872;5.306;2023-04-15T08:56:11;12.93;;;8.35;;
63434;SDS011;68814;50.872;5.306;2023-04-15T08:58:40;13.50;;;8.07;;
63434;SDS011;68814;50.872;5.306;2023-04-15T09:01:06;18.98;;;7.85;;
63434;SDS011;68814;50.872;5.306;2023-04-15T09:03:31;11.20;;;7.22;;
63434;SDS011;68814;50.872;5.306;2023-04-15T09:05:58;13.85;;;7.60;;
63434;SDS011;68814;50.872;5.306;2023-04-15T09:08:24;12.07;;;7.53;;
63434;SDS011;68814;50.872;5.306;2023-04-15T09:10:50;9.50;;;6.72;;
63434;SDS011;68814;50.872;5.306;2023-04-15T09:13:17;12.38;;;6.97;;
63434;SDS011;68814;50.872;5.306;2023-04-15T09:15:43;8.65;;;5.93;;
63434;SDS011;68814;50.872;5.306;2023-04-15T09:18:10;15.77;;;7.00;;
63434;SDS011;68814;50.872;5.306;2023-04-15T09:20:38;10.95;;;6.15;;
63434;SDS011;68814;50.872;5.306;2023-04-15T09:23:10;9.55;;;6.43;;
63434;SDS011;68814;50.872;5.306;2023-04-15T09:25:38;8.95;;;5.88;;
63434;SDS011;68814;50.872;5.306;2023-04-15T09:28:06;10.82;;;5.88;;
63434;SDS011;68814;50.872;5.306;2023-04-15T09:30:32;8.90;;;5.43;;
63434;SDS011;68814;50.872;5.306;2023-04-15T09:32:59;9.88;;;5.68;;
63434;SDS011;68814;50.872;5.306;2023-04-15T09:35:26;6.47;;;5.05;;
63434;SDS011;68814;50.872;5.306;2023-04-15T09:37:52;6.32;;;5.00;;
63434;SDS011;68814;50.872;5.306;2023-04-15T09:43:02;9.32;;;4.80;;
63434;SDS011;68814;50.872;5.306;2023-04-15T09:45:30;9.77;;;5.07;;
63434;SDS011;68814;50.872;5.306;2023-04-15T09:47:57;9.02;;;4.82;;
63434;SDS011;68814;50.872;5.306;2023-04-15T09:50:26;15.45;;;4.80;;
63434;SDS011;68814;50.872;5.306;2023-04-15T09:52:53;9.38;;;4.65;;
63434;SDS011;68814;50.872;5.306;2023-04-15T09:55:19;8.18;;;4.68;;
63434;SDS011;68814;50.872;5.306;2023-04-15T09:57:45;7.70;;;4.30;;
63434;SDS011;68814;50.872;5.306;2023-04-15T10:00:11;6.90;;;4.18;;
63434;SDS011;68814;50.872;5.306;2023-04-15T10:02:41;6.60;;;4.47;;
63434;SDS011;68814;50.872;5.306;2023-04-15T10:05:08;10.75;;;5.22;;
63434;SDS011;68814;50.872;5.306;2023-04-15T10:07:36;7.05;;;4.53;;
63434;SDS011;68814;50.872;5.306;2023-04-15T10:10:05;5.65;;;4.50;;
63434;SDS011;68814;50.872;5.306;2023-04-15T10:12:31;8.20;;;4.30;;
63434;SDS011;68814;50.872;5.306;2023-04-15T10:15:00;11.27;;;4.38;;
63434;SDS011;68814;50.872;5.306;2023-04-15T10:17:29;5.25;;;3.30;;
63434;SDS011;68814;50.872;5.306;2023-04-15T10:20:02;6.10;;;3.60;;
63434;SDS011;68814;50.872;5.306;2023-04-15T10:22:29;7.30;;;4.15;;
63434;SDS011;68814;50.872;5.306;2023-04-15T10:24:56;7.45;;;4.07;;
63434;SDS011;68814;50.872;5.306;2023-04-15T10:27:22;6.85;;;3.60;;
63434;SDS011;68814;50.872;5.306;2023-04-15T10:29:49;5.47;;;3.17;;
63434;SDS011;68814;50.872;5.306;2023-04-15T10:32:16;5.80;;;2.15;;
63434;SDS011;68814;50.872;5.306;2023-04-15T10:34:45;3.60;;;2.22;;
63434;SDS011;68814;50.872;5.306;2023-04-15T10:37:12;5.18;;;2.67;;
63434;SDS011;68814;50.872;5.306;2023-04-15T10:39:43;4.95;;;2.42;;
63434;SDS011;68814;50.872;5.306;2023-04-15T10:42:10;1.67;;;1.33;;
63434;SDS011;68814;50.872;5.306;2023-04-15T10:44:41;2.47;;;1.30;;
63434;SDS011;68814;50.872;5.306;2023-04-15T10:47:14;3.30;;;1.35;;
63434;SDS011;68814;50.872;5.306;2023-04-15T10:49:48;2.63;;;1.60;;
63434;SDS011;68814;50.872;5.306;2023-04-15T10:52:16;3.47;;;2.10;;
63434;SDS011;68814;50.872;5.306;2023-04-15T10:54:46;3.50;;;2.50;;
63434;SDS011;68814;50.872;5.306;2023-04-15T10:57:13;6.90;;;2.05;;
63434;SDS011;68814;50.872;5.306;2023-04-15T11:05:06;3.60;;;1.73;;
63434;SDS011;68814;50.872;5.306;2023-04-15T11:07:35;5.15;;;2.65;;
63434;SDS011;68814;50.872;5.306;2023-04-15T11:10:03;3.20;;;1.98;;
63434;SDS011;68814;50.872;5.306;2023-04-15T11:12:50;3.20;;;2.10;;
63434;SDS011;68814;50.872;5.306;2023-04-15T11:15:29;3.63;;;2.35;;
63434;SDS011;68814;50.872;5.306;2023-04-15T11:18:14;3.25;;;2.33;;
63434;SDS011;68814;50.872;5.306;2023-04-15T11:20:45;7.60;;;2.90;;
63434;SDS011;68814;50.872;5.306;2023-04-15T11:23:17;5.43;;;3.38;;
63434;SDS011;68814;50.872;5.306;2023-04-15T11:25:44;6.22;;;2.83;;
63434;SDS011;68814;50.872;5.306;2023-04-15T11:28:10;6.70;;;4.30;;
63434;SDS011;68814;50.872;5.306;2023-04-15T11:30:37;5.13;;;3.60;;
63434;SDS011;68814;50.872;5.306;2023-04-15T11:33:04;2.95;;;2.50;;
63434;SDS011;68814;50.872;5.306;2023-04-15T11:35:34;3.35;;;2.70;;
63434;SDS011;68814;50.872;5.306;2023-04-15T11:38:03;4.50;;;2.05;;
63434;SDS011;68814;50.872;5.306;2023-04-15T11:40:32;2.10;;;1.60;;
63434;SDS011;68814;50.872;5.306;2023-04-15T11:45:36;2.92;;;2.00;;
63434;SDS011;68814;50.872;5.306;2023-04-15T11:50:37;1.80;;;1.48;;
63434;SDS011;68814;50.872;5.306;2023-04-15T11:53:05;1.92;;;1.40;;
63434;SDS011;68814;50.872;5.306;2023-04-15T11:55:46;2.35;;;1.40;;
63434;SDS011;68814;50.872;5.306;2023-04-15T11:58:13;3.63;;;1.45;;
63434;SDS011;68814;50.872;5.306;2023-04-15T12:00:45;2.55;;;1.00;;
63434;SDS011;68814;50.872;5.306;2023-04-15T12:11:18;1.60;;;1.30;;
63434;SDS011;68814;50.872;5.306;2023-04-15T12:13:48;2.05;;;0.90;;
63434;SDS011;68814;50.872;5.306;2023-04-15T12:16:21;1.58;;;0.77;;
63434;SDS011;68814;50.872;5.306;2023-04-15T12:18:51;2.95;;;1.30;;
63434;SDS011;68814;50.872;5.306;2023-04-15T12:21:20;2.28;;;1.00;;
63434;SDS011;68814;50.872;5.306;2023-04-15T12:23:50;2.58;;;1.10;;
63434;SDS011;68814;50.872;5.306;2023-04-15T12:26:24;2.33;;;1.10;;
63434;SDS011;68814;50.872;5.306;2023-04-15T12:31:52;1.30;;;0.73;;
63434;SDS011;68814;50.872;5.306;2023-04-15T12:34:26;1.35;;;0.70;;
63434;SDS011;68814;50.872;5.306;2023-04-15T12:36:56;1.33;;;0.70;;
63434;SDS011;68814;50.872;5.306;2023-04-15T12:39:44;2.08;;;1.00;;
63434;SDS011;68814;50.872;5.306;2023-04-15T12:42:13;2.70;;;0.68;;
63434;SDS011;68814;50.872;5.306;2023-04-15T12:44:39;1.90;;;1.00;;
63434;SDS011;68814;50.872;5.306;2023-04-15T12:47:06;2.15;;;0.93;;
63434;SDS011;68814;50.872;5.306;2023-04-15T12:49:32;1.45;;;0.70;;
63434;SDS011;68814;50.872;5.306;2023-04-15T12:51:59;2.05;;;0.60;;
63434;SDS011;68814;50.872;5.306;2023-04-15T12:54:26;1.58;;;1.10;;
63434;SDS011;68814;50.872;5.306;2023-04-15T12:56:53;3.30;;;1.05;;
63434;SDS011;68814;50.872;5.306;2023-04-15T12:59:19;1.83;;;0.98;;
63434;SDS011;68814;50.872;5.306;2023-04-15T13:01:45;1.48;;;0.93;;
63434;SDS011;68814;50.872;5.306;2023-04-15T13:04:12;1.27;;;0.88;;
63434;SDS011;68814;50.872;5.306;2023-04-15T13:06:38;6.40;;;1.13;;
63434;SDS011;68814;50.872;5.306;2023-04-15T13:09:04;1.10;;;0.75;;
63434;SDS011;68814;50.872;5.306;2023-04-15T13:11:30;0.90;;;0.70;;
63434;SDS011;68814;50.872;5.306;2023-04-15T13:13:57;1.00;;;0.60;;
63434;SDS011;68814;50.872;5.306;2023-04-15T13:16:24;2.58;;;1.10;;
63434;SDS011;68814;50.872;5.306;2023-04-15T13:18:50;1.67;;;0.80;;
63434;SDS011;68814;50.872;5.306;2023-04-15T13:21:15;2.08;;;1.02;;
63434;SDS011;68814;50.872;5.306;2023-04-15T13:23:42;2.10;;;1.10;;
63434;SDS011;68814;50.872;5.306;2023-04-15T13:26:08;1.83;;;0.80;;
63434;SDS011;68814;50.872;5.306;2023-04-15T13:28:36;0.90;;;0.88;;
63434;SDS011;68814;50.872;5.306;2023-04-15T13:31:02;1.58;;;0.80;;
63434;SDS011;68814;50.872;5.306;2023-04-15T13:33:27;1.20;;;0.70;;
63434;SDS011;68814;50.872;5.306;2023-04-15T13:35:53;0.80;;;0.80;;
63434;SDS011;68814;50.872;5.306;2023-04-15T13:38:19;0.88;;;0.60;;
63434;SDS011;68814;50.872;5.306;2023-04-15T13:40:45;0.70;;;0.63;;
63434;SDS011;68814;50.872;5.306;2023-04-15T13:43:10;1.80;;;0.82;;
63434;SDS011;68814;50.872;5.306;2023-04-15T13:45:36;1.92;;;0.82;;
63434;SDS011;68814;50.872;5.306;2023-04-15T13:48:02;3.15;;;1.08;;
63434;SDS011;68814;50.872;5.306;2023-04-15T13:50:28;1.60;;;1.10;;
63434;SDS011;68814;50.872;5.306;2023-04-15T13:52:54;2.75;;;1.10;;
63434;SDS011;68814;50.872;5.306;2023-04-15T13:57:45;1.30;;;0.93;;
63434;SDS011;68814;50.872;5.306;2023-04-15T14:00:11;2.05;;;0.77;;
63434;SDS011;68814;50.872;5.306;2023-04-15T14:02:38;1.42;;;0.57;;
63434;SDS011;68814;50.872;5.306;2023-04-15T14:05:04;2.83;;;0.90;;
63434;SDS011;68814;50.872;5.306;2023-04-15T14:07:31;3.60;;;0.95;;
63434;SDS011;68814;50.872;5.306;2023-04-15T14:10:00;2.10;;;1.20;;
63434;SDS011;68814;50.872;5.306;2023-04-15T14:12:26;1.58;;;0.90;;
63434;SDS011;68814;50.872;5.306;2023-04-15T14:14:51;2.55;;;0.80;;
63434;SDS011;68814;50.872;5.306;2023-04-15T14:17:17;1.92;;;0.88;;
63434;SDS011;68814;50.872;5.306;2023-04-15T14:19:43;1.20;;;0.80;;
63434;SDS011;68814;50.872;5.306;2023-04-15T14:22:09;0.90;;;0.70;;
63434;SDS011;68814;50.872;5.306;2023-04-15T14:24:34;0.93;;;0.70;;
63434;SDS011;68814;50.872;5.306;2023-04-15T14:27:00;1.13;;;0.80;;
63434;SDS011;68814;50.872;5.306;2023-04-15T14:29:26;3.60;;;0.70;;
63434;SDS011;68814;50.872;5.306;2023-04-15T14:31:52;0.98;;;0.60;;
63434;SDS011;68814;50.872;5.306;2023-04-15T14:34:18;1.67;;;0.68;;
63434;SDS011;68814;50.872;5.306;2023-04-15T14:36:46;2.15;;;1.05;;
63434;SDS011;68814;50.872;5.306;2023-04-15T14:39:12;0.82;;;0.60;;
63434;SDS011;68814;50.872;5.306;2023-04-15T14:41:38;1.17;;;0.80;;
63434;SDS011;68814;50.872;5.306;2023-04-15T14:44:04;1.48;;;0.70;;
63434;SDS011;68814;50.872;5.306;2023-04-15T14:46:29;2.35;;;0.80;;
63434;SDS011;68814;50.872;5.306;2023-04-15T14:48:55;2.80;;;0.70;;
63434;SDS011;68814;50.872;5.306;2023-04-15T14:51:21;4.00;;;0.88;;
63434;SDS011;68814;50.872;5.306;2023-04-15T14:53:47;2.00;;;0.93;;
63434;SDS011;68814;50.872;5.306;2023-04-15T14:56:13;1.48;;;0.85;;
63434;SDS011;68814;50.872;5.306;2023-04-15T14:58:38;4.45;;;0.98;;
63434;SDS011;68814;50.872;5.306;2023-04-15T15:01:04;0.73;;;0.70;;
63434;SDS011;68814;50.872;5.306;2023-04-15T15:03:30;2.67;;;0.80;;
63434;SDS011;68814;50.872;5.306;2023-04-15T15:05:55;1.40;;;0.90;;
63434;SDS011;68814;50.872;5.306;2023-04-15T15:08:24;3.85;;;1.42;;